Airfield :
LOGIN :

Register | Disclaimer

   EN    FR    IT 

 










Legend :    VFR   Marginal VFR   IFR   Intensive IFR   Very Intensive IFR
Visi :
Ceiling :
>= 8 km
>= 3000ft
5 to 8 km
1000 to 3000 ft
1500m to 5 km
500 to 1000 ft
800 to 1500m
200 to 500 ft
< 800m
< 200 ft
Symbols :   Thunderstorms  Fog  Heavy snow  Heavy precipitations  Wind > 20 kt
SIGMETs :     Misc.  Thunderstorms  Icing  Turbulence  Mountain Waves  Volcanic Ashes







- Airport Elevation : 2776 ft
- IATA code : VLL


LEVD - Valladolid

CURRENT METAR :
  • 180800Z 05015KT CAVOK 13/07 Q1023

EXPIRED METARs :
  • 180730Z 06014KT 030V090 CAVOK 13/07 Q1023
  • 180700Z 06016KT CAVOK 12/07 Q1023
  • 180630Z 06013KT 030V090 CAVOK 11/07 Q1023
  • 180600Z 06011KT 030V090 CAVOK 10/07 Q1023
  • 180530Z 06010KT CAVOK 10/07 Q1023
  • 180500Z 06012KT 030V090 CAVOK 10/06 Q1023

TAF AMD TAF LEVD
Valid from the 18 at 07:00 until the 19 at 06:00 UTC


180718Z 1807/1906 05015KT CAVOK TX27/1815Z TN11/1906Z
No reported NOTAMs for that airfield.
1 SIGMET reported for the Madrid FIR (LECM) :
 
Severe turbulence
LECM SIGMET 1 VALID 180750/181000 LEVA
LECM MADRID UIR SEV TURB OBS AT 0750Z WI N3755 W00521 - N3716 W00521 - N3711 W00405 - N3754 W00357 - N3755 W00521 FL330/360 STNR WKN=



MET'MAP, your aeronautical weather chart ! - Copyright ORBIFLY December 2007 - Disclaimer

ORBIFLY MET'MAP TEAM :

Programming & Development : Alexandra Zaïnal
Concept & Development : Baudouin d'Aumeries
Co-Development & Prog : Marc-Olivier Méhu
Technical & hardware support : Manuel Goepfert

Contact : metmap@orbifly.com




SOURCES & CREDITS :

   NOAA